sensor_id;sensor_type;location;lat;lon;timestamp;P1;durP1;ratioP1;P2;durP2;ratioP2
12467;SDS011;57850;52.922;6.256;2023-09-18T00:00:49;15.30;;;13.65;;
12467;SDS011;57850;52.922;6.256;2023-09-18T00:03:16;20.08;;;14.73;;
12467;SDS011;57850;52.922;6.256;2023-09-18T00:05:44;19.05;;;14.75;;
12467;SDS011;57850;52.922;6.256;2023-09-18T00:08:11;19.05;;;15.13;;
12467;SDS011;57850;52.922;6.256;2023-09-18T00:10:37;19.73;;;13.65;;
12467;SDS011;57850;52.922;6.256;2023-09-18T00:13:04;17.15;;;15.30;;
12467;SDS011;57850;52.922;6.256;2023-09-18T00:15:31;19.25;;;16.58;;
12467;SDS011;57850;52.922;6.256;2023-09-18T00:17:59;20.70;;;15.65;;
12467;SDS011;57850;52.922;6.256;2023-09-18T00:20:26;20.88;;;16.15;;
12467;SDS011;57850;52.922;6.256;2023-09-18T00:22:53;20.67;;;17.35;;
12467;SDS011;57850;52.922;6.256;2023-09-18T00:25:20;19.48;;;16.27;;
12467;SDS011;57850;52.922;6.256;2023-09-18T00:27:47;20.15;;;16.67;;
12467;SDS011;57850;52.922;6.256;2023-09-18T00:30:14;19.27;;;16.25;;
12467;SDS011;57850;52.922;6.256;2023-09-18T00:32:42;20.38;;;15.35;;
12467;SDS011;57850;52.922;6.256;2023-09-18T00:35:09;19.30;;;15.43;;
12467;SDS011;57850;52.922;6.256;2023-09-18T00:37:36;20.40;;;15.75;;
12467;SDS011;57850;52.922;6.256;2023-09-18T00:40:05;17.98;;;16.00;;
12467;SDS011;57850;52.922;6.256;2023-09-18T00:42:32;17.75;;;15.43;;
12467;SDS011;57850;52.922;6.256;2023-09-18T00:44:59;20.92;;;16.60;;
12467;SDS011;57850;52.922;6.256;2023-09-18T00:47:25;18.05;;;16.08;;
12467;SDS011;57850;52.922;6.256;2023-09-18T00:49:53;17.75;;;15.65;;
12467;SDS011;57850;52.922;6.256;2023-09-18T00:52:21;18.35;;;14.95;;
12467;SDS011;57850;52.922;6.256;2023-09-18T00:54:50;18.38;;;15.25;;
12467;SDS011;57850;52.922;6.256;2023-09-18T00:57:17;17.02;;;14.02;;
12467;SDS011;57850;52.922;6.256;2023-09-18T00:59:44;17.60;;;14.00;;
12467;SDS011;57850;52.922;6.256;2023-09-18T01:02:12;18.08;;;14.30;;
12467;SDS011;57850;52.922;6.256;2023-09-18T01:04:38;17.58;;;14.52;;
12467;SDS011;57850;52.922;6.256;2023-09-18T01:07:09;19.60;;;15.93;;
12467;SDS011;57850;52.922;6.256;2023-09-18T01:09:37;18.75;;;15.05;;
12467;SDS011;57850;52.922;6.256;2023-09-18T01:12:06;19.83;;;16.27;;
12467;SDS011;57850;52.922;6.256;2023-09-18T01:14:39;19.25;;;16.23;;
12467;SDS011;57850;52.922;6.256;2023-09-18T01:17:09;18.90;;;15.57;;
12467;SDS011;57850;52.922;6.256;2023-09-18T01:19:37;22.80;;;16.48;;
12467;SDS011;57850;52.922;6.256;2023-09-18T01:22:04;19.25;;;15.93;;
12467;SDS011;57850;52.922;6.256;2023-09-18T01:24:33;19.15;;;15.77;;
12467;SDS011;57850;52.922;6.256;2023-09-18T01:27:00;21.17;;;16.45;;
12467;SDS011;57850;52.922;6.256;2023-09-18T01:29:27;19.80;;;15.98;;
12467;SDS011;57850;52.922;6.256;2023-09-18T01:31:54;19.88;;;17.38;;
12467;SDS011;57850;52.922;6.256;2023-09-18T01:34:21;19.92;;;16.70;;
12467;SDS011;57850;52.922;6.256;2023-09-18T01:36:51;20.80;;;17.88;;
12467;SDS011;57850;52.922;6.256;2023-09-18T01:39:19;20.52;;;18.05;;
12467;SDS011;57850;52.922;6.256;2023-09-18T01:41:48;20.90;;;18.23;;
12467;SDS011;57850;52.922;6.256;2023-09-18T01:44:15;21.40;;;18.20;;
12467;SDS011;57850;52.922;6.256;2023-09-18T01:46:42;26.23;;;19.13;;
12467;SDS011;57850;52.922;6.256;2023-09-18T01:49:10;21.92;;;18.23;;
12467;SDS011;57850;52.922;6.256;2023-09-18T01:51:36;22.05;;;17.80;;
12467;SDS011;57850;52.922;6.256;2023-09-18T01:54:03;21.50;;;18.98;;
12467;SDS011;57850;52.922;6.256;2023-09-18T01:56:30;21.52;;;18.02;;
12467;SDS011;57850;52.922;6.256;2023-09-18T01:58:58;22.35;;;18.98;;
12467;SDS011;57850;52.922;6.256;2023-09-18T02:01:24;23.38;;;19.02;;
12467;SDS011;57850;52.922;6.256;2023-09-18T02:03:51;23.38;;;18.13;;
12467;SDS011;57850;52.922;6.256;2023-09-18T02:06:17;25.55;;;19.90;;
12467;SDS011;57850;52.922;6.256;2023-09-18T02:08:44;22.45;;;19.15;;
12467;SDS011;57850;52.922;6.256;2023-09-18T02:11:10;22.00;;;19.23;;
12467;SDS011;57850;52.922;6.256;2023-09-18T02:13:37;25.52;;;19.95;;
12467;SDS011;57850;52.922;6.256;2023-09-18T02:16:05;24.45;;;20.30;;
12467;SDS011;57850;52.922;6.256;2023-09-18T02:18:32;23.23;;;19.88;;
12467;SDS011;57850;52.922;6.256;2023-09-18T02:20:58;23.92;;;19.33;;
12467;SDS011;57850;52.922;6.256;2023-09-18T02:23:25;24.73;;;19.88;;
12467;SDS011;57850;52.922;6.256;2023-09-18T02:25:55;23.98;;;20.38;;
12467;SDS011;57850;52.922;6.256;2023-09-18T02:28:22;25.45;;;21.25;;
12467;SDS011;57850;52.922;6.256;2023-09-18T02:30:48;24.80;;;20.25;;
12467;SDS011;57850;52.922;6.256;2023-09-18T02:33:16;24.10;;;20.15;;
12467;SDS011;57850;52.922;6.256;2023-09-18T02:35:43;23.58;;;20.05;;
12467;SDS011;57850;52.922;6.256;2023-09-18T02:38:10;21.38;;;19.00;;
12467;SDS011;57850;52.922;6.256;2023-09-18T02:40:36;20.55;;;18.38;;
12467;SDS011;57850;52.922;6.256;2023-09-18T02:43:03;22.27;;;19.45;;
12467;SDS011;57850;52.922;6.256;2023-09-18T02:45:29;21.92;;;18.67;;
12467;SDS011;57850;52.922;6.256;2023-09-18T02:47:56;23.20;;;19.38;;
12467;SDS011;57850;52.922;6.256;2023-09-18T02:50:24;23.10;;;19.20;;
12467;SDS011;57850;52.922;6.256;2023-09-18T02:52:50;22.63;;;19.42;;
12467;SDS011;57850;52.922;6.256;2023-09-18T02:55:17;27.40;;;21.10;;
12467;SDS011;57850;52.922;6.256;2023-09-18T02:57:44;25.77;;;19.42;;
12467;SDS011;57850;52.922;6.256;2023-09-18T03:00:10;22.02;;;18.45;;
12467;SDS011;57850;52.922;6.256;2023-09-18T03:02:37;24.92;;;19.20;;
12467;SDS011;57850;52.922;6.256;2023-09-18T03:05:04;22.15;;;19.08;;
12467;SDS011;57850;52.922;6.256;2023-09-18T03:07:33;21.95;;;18.20;;
12467;SDS011;57850;52.922;6.256;2023-09-18T03:09:59;21.77;;;18.83;;
12467;SDS011;57850;52.922;6.256;2023-09-18T03:12:26;22.30;;;18.55;;
12467;SDS011;57850;52.922;6.256;2023-09-18T03:14:53;22.73;;;17.92;;
12467;SDS011;57850;52.922;6.256;2023-09-18T03:17:19;22.75;;;19.30;;
12467;SDS011;57850;52.922;6.256;2023-09-18T03:19:47;20.00;;;17.88;;
12467;SDS011;57850;52.922;6.256;2023-09-18T03:22:14;23.70;;;18.35;;
12467;SDS011;57850;52.922;6.256;2023-09-18T03:24:42;21.23;;;18.45;;
12467;SDS011;57850;52.922;6.256;2023-09-18T03:27:08;23.60;;;18.63;;
12467;SDS011;57850;52.922;6.256;2023-09-18T03:29:35;22.92;;;18.38;;
12467;SDS011;57850;52.922;6.256;2023-09-18T03:32:01;22.05;;;18.60;;
12467;SDS011;57850;52.922;6.256;2023-09-18T03:34:28;23.42;;;19.55;;
12467;SDS011;57850;52.922;6.256;2023-09-18T03:36:55;26.60;;;19.45;;
12467;SDS011;57850;52.922;6.256;2023-09-18T03:39:22;23.83;;;20.33;;
12467;SDS011;57850;52.922;6.256;2023-09-18T03:41:49;20.70;;;18.05;;
12467;SDS011;57850;52.922;6.256;2023-09-18T03:44:16;21.00;;;17.90;;
12467;SDS011;57850;52.922;6.256;2023-09-18T03:46:43;23.08;;;18.42;;
12467;SDS011;57850;52.922;6.256;2023-09-18T03:49:09;21.88;;;17.77;;
12467;SDS011;57850;52.922;6.256;2023-09-18T03:51:36;21.40;;;18.17;;
12467;SDS011;57850;52.922;6.256;2023-09-18T03:54:03;21.92;;;17.52;;
12467;SDS011;57850;52.922;6.256;2023-09-18T03:56:29;22.48;;;16.67;;
12467;SDS011;57850;52.922;6.256;2023-09-18T03:58:57;19.48;;;16.63;;
12467;SDS011;57850;52.922;6.256;2023-09-18T04:01:26;20.00;;;16.67;;
12467;SDS011;57850;52.922;6.256;2023-09-18T04:03:53;20.45;;;16.73;;
12467;SDS011;57850;52.922;6.256;2023-09-18T04:06:20;19.05;;;16.30;;
12467;SDS011;57850;52.922;6.256;2023-09-18T04:08:49;19.27;;;15.80;;
12467;SDS011;57850;52.922;6.256;2023-09-18T04:11:15;18.23;;;16.08;;
12467;SDS011;57850;52.922;6.256;2023-09-18T04:13:42;19.42;;;13.88;;
12467;SDS011;57850;52.922;6.256;2023-09-18T04:16:10;18.63;;;16.63;;
12467;SDS011;57850;52.922;6.256;2023-09-18T04:18:41;19.65;;;15.52;;
12467;SDS011;57850;52.922;6.256;2023-09-18T04:21:08;17.00;;;14.98;;
12467;SDS011;57850;52.922;6.256;2023-09-18T04:23:35;19.10;;;15.43;;
12467;SDS011;57850;52.922;6.256;2023-09-18T04:26:02;18.02;;;14.88;;
12467;SDS011;57850;52.922;6.256;2023-09-18T04:28:29;19.33;;;14.75;;
12467;SDS011;57850;52.922;6.256;2023-09-18T04:30:55;16.38;;;13.93;;
12467;SDS011;57850;52.922;6.256;2023-09-18T04:33:23;17.92;;;15.05;;
12467;SDS011;57850;52.922;6.256;2023-09-18T04:35:51;19.48;;;14.52;;
12467;SDS011;57850;52.922;6.256;2023-09-18T04:38:17;15.35;;;13.65;;
12467;SDS011;57850;52.922;6.256;2023-09-18T04:40:44;18.98;;;14.63;;
12467;SDS011;57850;52.922;6.256;2023-09-18T04:43:11;19.27;;;13.75;;
12467;SDS011;57850;52.922;6.256;2023-09-18T04:45:38;15.57;;;13.95;;
12467;SDS011;57850;52.922;6.256;2023-09-18T04:48:04;14.75;;;13.05;;
12467;SDS011;57850;52.922;6.256;2023-09-18T04:50:34;16.60;;;14.32;;
12467;SDS011;57850;52.922;6.256;2023-09-18T04:53:01;16.55;;;13.32;;
12467;SDS011;57850;52.922;6.256;2023-09-18T04:55:29;14.40;;;12.18;;
12467;SDS011;57850;52.922;6.256;2023-09-18T04:57:56;14.85;;;13.35;;
12467;SDS011;57850;52.922;6.256;2023-09-18T05:00:23;14.82;;;12.88;;
12467;SDS011;57850;52.922;6.256;2023-09-18T05:02:51;13.05;;;11.55;;
12467;SDS011;57850;52.922;6.256;2023-09-18T05:05:18;15.05;;;12.82;;
12467;SDS011;57850;52.922;6.256;2023-09-18T05:07:46;14.68;;;12.48;;
12467;SDS011;57850;52.922;6.256;2023-09-18T05:10:12;12.57;;;11.35;;
12467;SDS011;57850;52.922;6.256;2023-09-18T05:12:39;14.52;;;10.82;;
12467;SDS011;57850;52.922;6.256;2023-09-18T05:15:06;15.80;;;11.55;;
12467;SDS011;57850;52.922;6.256;2023-09-18T05:17:41;16.35;;;11.77;;
12467;SDS011;57850;52.922;6.256;2023-09-18T05:20:09;14.63;;;11.65;;
12467;SDS011;57850;52.922;6.256;2023-09-18T05:22:38;14.85;;;11.20;;
12467;SDS011;57850;52.922;6.256;2023-09-18T05:25:07;15.02;;;11.43;;
12467;SDS011;57850;52.922;6.256;2023-09-18T05:27:35;13.88;;;11.65;;
12467;SDS011;57850;52.922;6.256;2023-09-18T05:30:09;14.57;;;11.60;;
12467;SDS011;57850;52.922;6.256;2023-09-18T05:32:37;14.75;;;11.80;;
12467;SDS011;57850;52.922;6.256;2023-09-18T05:35:03;15.40;;;12.75;;
12467;SDS011;57850;52.922;6.256;2023-09-18T05:37:31;14.52;;;11.27;;
12467;SDS011;57850;52.922;6.256;2023-09-18T05:39:58;16.30;;;11.75;;
12467;SDS011;57850;52.922;6.256;2023-09-18T05:42:27;14.10;;;10.82;;
12467;SDS011;57850;52.922;6.256;2023-09-18T05:44:53;12.07;;;10.27;;
12467;SDS011;57850;52.922;6.256;2023-09-18T05:47:20;14.32;;;10.40;;
12467;SDS011;57850;52.922;6.256;2023-09-18T05:49:48;13.25;;;10.70;;
12467;SDS011;57850;52.922;6.256;2023-09-18T05:52:14;13.23;;;10.68;;
12467;SDS011;57850;52.922;6.256;2023-09-18T05:54:41;12.85;;;10.50;;
12467;SDS011;57850;52.922;6.256;2023-09-18T05:57:07;11.77;;;10.57;;
12467;SDS011;57850;52.922;6.256;2023-09-18T05:59:35;10.93;;;9.48;;
12467;SDS011;57850;52.922;6.256;2023-09-18T06:02:03;14.13;;;10.40;;
12467;SDS011;57850;52.922;6.256;2023-09-18T06:04:30;17.38;;;10.80;;
12467;SDS011;57850;52.922;6.256;2023-09-18T06:06:56;12.13;;;10.50;;
12467;SDS011;57850;52.922;6.256;2023-09-18T06:09:23;15.35;;;10.60;;
12467;SDS011;57850;52.922;6.256;2023-09-18T06:11:50;14.50;;;10.70;;
12467;SDS011;57850;52.922;6.256;2023-09-18T06:14:17;14.48;;;10.13;;
12467;SDS011;57850;52.922;6.256;2023-09-18T06:16:45;12.38;;;10.98;;
12467;SDS011;57850;52.922;6.256;2023-09-18T06:19:11;13.05;;;10.45;;
12467;SDS011;57850;52.922;6.256;2023-09-18T06:21:38;13.02;;;10.57;;
12467;SDS011;57850;52.922;6.256;2023-09-18T06:24:05;15.82;;;11.77;;
12467;SDS011;57850;52.922;6.256;2023-09-18T06:26:32;14.98;;;11.52;;
12467;SDS011;57850;52.922;6.256;2023-09-18T06:28:59;12.38;;;10.68;;
12467;SDS011;57850;52.922;6.256;2023-09-18T06:31:25;15.70;;;12.05;;
12467;SDS011;57850;52.922;6.256;2023-09-18T06:33:53;15.07;;;11.52;;
12467;SDS011;57850;52.922;6.256;2023-09-18T06:36:21;20.02;;;12.70;;
12467;SDS011;57850;52.922;6.256;2023-09-18T06:38:47;15.05;;;12.13;;
12467;SDS011;57850;52.922;6.256;2023-09-18T06:41:14;17.40;;;12.70;;
12467;SDS011;57850;52.922;6.256;2023-09-18T06:43:40;17.33;;;13.60;;
12467;SDS011;57850;52.922;6.256;2023-09-18T06:46:07;19.10;;;13.55;;
12467;SDS011;57850;52.922;6.256;2023-09-18T06:48:34;17.23;;;13.13;;
12467;SDS011;57850;52.922;6.256;2023-09-18T06:51:02;18.50;;;12.60;;
12467;SDS011;57850;52.922;6.256;2023-09-18T06:53:29;19.65;;;14.07;;
12467;SDS011;57850;52.922;6.256;2023-09-18T06:55:55;18.00;;;14.20;;
12467;SDS011;57850;52.922;6.256;2023-09-18T06:58:22;18.85;;;13.70;;
12467;SDS011;57850;52.922;6.256;2023-09-18T07:00:48;19.90;;;14.25;;
12467;SDS011;57850;52.922;6.256;2023-09-18T07:03:16;16.45;;;13.48;;
12467;SDS011;57850;52.922;6.256;2023-09-18T07:05:43;20.25;;;13.68;;
12467;SDS011;57850;52.922;6.256;2023-09-18T07:08:12;15.57;;;11.23;;
12467;SDS011;57850;52.922;6.256;2023-09-18T07:10:41;14.27;;;10.73;;
12467;SDS011;57850;52.922;6.256;2023-09-18T07:13:07;16.85;;;10.88;;
12467;SDS011;57850;52.922;6.256;2023-09-18T07:15:34;14.77;;;10.55;;
12467;SDS011;57850;52.922;6.256;2023-09-18T07:18:01;13.48;;;11.70;;
12467;SDS011;57850;52.922;6.256;2023-09-18T07:20:28;14.40;;;11.45;;
12467;SDS011;57850;52.922;6.256;2023-09-18T07:22:55;15.00;;;11.43;;
12467;SDS011;57850;52.922;6.256;2023-09-18T07:25:24;16.98;;;12.80;;
12467;SDS011;57850;52.922;6.256;2023-09-18T07:27:50;16.30;;;11.82;;
12467;SDS011;57850;52.922;6.256;2023-09-18T07:30:17;18.73;;;13.05;;
12467;SDS011;57850;52.922;6.256;2023-09-18T07:32:45;21.00;;;14.55;;
12467;SDS011;57850;52.922;6.256;2023-09-18T07:35:12;19.92;;;14.52;;
12467;SDS011;57850;52.922;6.256;2023-09-18T07:37:39;25.33;;;15.82;;
12467;SDS011;57850;52.922;6.256;2023-09-18T07:40:06;18.80;;;15.02;;
12467;SDS011;57850;52.922;6.256;2023-09-18T07:42:35;23.63;;;17.50;;
12467;SDS011;57850;52.922;6.256;2023-09-18T07:45:01;19.38;;;14.30;;
12467;SDS011;57850;52.922;6.256;2023-09-18T07:47:28;20.58;;;16.23;;
12467;SDS011;57850;52.922;6.256;2023-09-18T07:49:56;21.20;;;16.38;;
12467;SDS011;57850;52.922;6.256;2023-09-18T07:52:23;23.77;;;16.45;;
12467;SDS011;57850;52.922;6.256;2023-09-18T07:54:49;21.02;;;16.05;;
12467;SDS011;57850;52.922;6.256;2023-09-18T07:57:16;22.38;;;15.68;;
12467;SDS011;57850;52.922;6.256;2023-09-18T07:59:45;20.50;;;15.65;;
12467;SDS011;57850;52.922;6.256;2023-09-18T08:02:12;23.02;;;16.83;;
12467;SDS011;57850;52.922;6.256;2023-09-18T08:04:38;19.67;;;16.08;;
12467;SDS011;57850;52.922;6.256;2023-09-18T08:07:05;21.08;;;15.90;;
12467;SDS011;57850;52.922;6.256;2023-09-18T08:09:32;22.85;;;15.95;;
12467;SDS011;57850;52.922;6.256;2023-09-18T08:12:01;22.30;;;15.95;;
12467;SDS011;57850;52.922;6.256;2023-09-18T08:14:28;21.38;;;16.58;;
12467;SDS011;57850;52.922;6.256;2023-09-18T08:16:57;26.27;;;17.75;;
12467;SDS011;57850;52.922;6.256;2023-09-18T08:19:25;22.05;;;16.65;;
12467;SDS011;57850;52.922;6.256;2023-09-18T08:21:52;21.23;;;15.68;;
12467;SDS011;57850;52.922;6.256;2023-09-18T08:24:21;20.80;;;15.57;;
12467;SDS011;57850;52.922;6.256;2023-09-18T08:26:48;20.67;;;14.68;;
12467;SDS011;57850;52.922;6.256;2023-09-18T08:29:14;20.90;;;14.23;;
12467;SDS011;57850;52.922;6.256;2023-09-18T08:31:41;15.68;;;13.13;;
12467;SDS011;57850;52.922;6.256;2023-09-18T08:34:09;14.25;;;11.73;;
12467;SDS011;57850;52.922;6.256;2023-09-18T08:36:36;14.52;;;12.25;;
12467;SDS011;57850;52.922;6.256;2023-09-18T08:39:02;14.35;;;10.75;;
12467;SDS011;57850;52.922;6.256;2023-09-18T08:41:31;13.48;;;10.07;;
12467;SDS011;57850;52.922;6.256;2023-09-18T08:44:00;15.32;;;9.68;;
12467;SDS011;57850;52.922;6.256;2023-09-18T08:46:28;11.57;;;9.48;;
12467;SDS011;57850;52.922;6.256;2023-09-18T08:48:55;15.15;;;9.57;;
12467;SDS011;57850;52.922;6.256;2023-09-18T08:51:24;13.93;;;9.93;;
12467;SDS011;57850;52.922;6.256;2023-09-18T08:53:52;13.15;;;9.02;;
12467;SDS011;57850;52.922;6.256;2023-09-18T08:56:20;11.27;;;9.65;;
12467;SDS011;57850;52.922;6.256;2023-09-18T08:58:47;12.25;;;10.60;;
12467;SDS011;57850;52.922;6.256;2023-09-18T09:01:14;13.98;;;10.93;;
12467;SDS011;57850;52.922;6.256;2023-09-18T09:03:41;13.25;;;11.27;;
12467;SDS011;57850;52.922;6.256;2023-09-18T09:06:11;14.32;;;12.27;;
12467;SDS011;57850;52.922;6.256;2023-09-18T09:08:39;16.27;;;12.77;;
12467;SDS011;57850;52.922;6.256;2023-09-18T09:11:06;16.60;;;11.63;;
12467;SDS011;57850;52.922;6.256;2023-09-18T09:13:32;16.55;;;12.73;;
12467;SDS011;57850;52.922;6.256;2023-09-18T09:15:59;15.38;;;12.75;;
12467;SDS011;57850;52.922;6.256;2023-09-18T09:18:27;14.70;;;12.18;;
12467;SDS011;57850;52.922;6.256;2023-09-18T09:20:56;15.30;;;13.25;;
12467;SDS011;57850;52.922;6.256;2023-09-18T09:23:25;17.77;;;12.82;;
12467;SDS011;57850;52.922;6.256;2023-09-18T09:25:53;17.30;;;12.80;;
12467;SDS011;57850;52.922;6.256;2023-09-18T09:28:30;16.77;;;13.15;;
12467;SDS011;57850;52.922;6.256;2023-09-18T09:31:00;16.77;;;13.77;;
12467;SDS011;57850;52.922;6.256;2023-09-18T09:33:28;16.33;;;13.40;;
12467;SDS011;57850;52.922;6.256;2023-09-18T09:35:55;19.83;;;14.68;;
12467;SDS011;57850;52.922;6.256;2023-09-18T09:38:27;17.42;;;13.50;;
12467;SDS011;57850;52.922;6.256;2023-09-18T09:40:58;18.10;;;14.65;;
12467;SDS011;57850;52.922;6.256;2023-09-18T09:43:25;16.73;;;13.60;;
12467;SDS011;57850;52.922;6.256;2023-09-18T09:45:56;17.15;;;13.60;;
12467;SDS011;57850;52.922;6.256;2023-09-18T09:48:24;18.05;;;14.70;;
12467;SDS011;57850;52.922;6.256;2023-09-18T09:50:51;15.95;;;13.70;;
12467;SDS011;57850;52.922;6.256;2023-09-18T09:53:20;18.45;;;13.90;;
12467;SDS011;57850;52.922;6.256;2023-09-18T09:56:13;16.80;;;13.05;;
12467;SDS011;57850;52.922;6.256;2023-09-18T09:58:59;21.38;;;12.85;;
12467;SDS011;57850;52.922;6.256;2023-09-18T10:01:28;13.65;;;12.25;;
12467;SDS011;57850;52.922;6.256;2023-09-18T10:03:57;16.23;;;12.18;;
12467;SDS011;57850;52.922;6.256;2023-09-18T10:06:26;13.35;;;11.95;;
12467;SDS011;57850;52.922;6.256;2023-09-18T10:08:55;12.48;;;11.23;;
12467;SDS011;57850;52.922;6.256;2023-09-18T10:11:23;14.43;;;10.50;;
12467;SDS011;57850;52.922;6.256;2023-09-18T10:13:53;11.60;;;10.40;;
12467;SDS011;57850;52.922;6.256;2023-09-18T10:16:24;10.55;;;9.55;;
12467;SDS011;57850;52.922;6.256;2023-09-18T10:18:55;10.30;;;9.30;;
12467;SDS011;57850;52.922;6.256;2023-09-18T10:21:29;11.80;;;9.43;;
12467;SDS011;57850;52.922;6.256;2023-09-18T10:24:04;10.30;;;9.07;;
12467;SDS011;57850;52.922;6.256;2023-09-18T10:26:44;8.85;;;7.50;;
12467;SDS011;57850;52.922;6.256;2023-09-18T10:29:16;11.57;;;7.60;;
12467;SDS011;57850;52.922;6.256;2023-09-18T10:31:46;8.52;;;7.72;;
12467;SDS011;57850;52.922;6.256;2023-09-18T10:34:14;8.38;;;6.70;;
12467;SDS011;57850;52.922;6.256;2023-09-18T10:36:42;10.00;;;6.78;;
12467;SDS011;57850;52.922;6.256;2023-09-18T10:39:09;7.47;;;6.75;;
12467;SDS011;57850;52.922;6.256;2023-09-18T10:41:37;7.15;;;6.32;;
12467;SDS011;57850;52.922;6.256;2023-09-18T10:44:06;6.80;;;6.20;;
12467;SDS011;57850;52.922;6.256;2023-09-18T10:46:34;7.30;;;6.60;;
12467;SDS011;57850;52.922;6.256;2023-09-18T10:49:01;9.73;;;6.35;;
12467;SDS011;57850;52.922;6.256;2023-09-18T10:51:29;7.53;;;6.80;;
12467;SDS011;57850;52.922;6.256;2023-09-18T10:53:57;8.07;;;6.90;;
12467;SDS011;57850;52.922;6.256;2023-09-18T10:56:25;7.10;;;6.45;;
12467;SDS011;57850;52.922;6.256;2023-09-18T10:58:55;9.13;;;6.60;;
12467;SDS011;57850;52.922;6.256;2023-09-18T11:01:25;6.20;;;5.40;;
12467;SDS011;57850;52.922;6.256;2023-09-18T11:03:57;8.13;;;5.70;;
12467;SDS011;57850;52.922;6.256;2023-09-18T11:06:25;6.93;;;5.05;;
12467;SDS011;57850;52.922;6.256;2023-09-18T11:08:55;4.88;;;4.38;;
12467;SDS011;57850;52.922;6.256;2023-09-18T11:11:26;4.80;;;4.30;;
12467;SDS011;57850;52.922;6.256;2023-09-18T11:13:55;5.47;;;4.88;;
12467;SDS011;57850;52.922;6.256;2023-09-18T11:16:36;4.90;;;4.50;;
12467;SDS011;57850;52.922;6.256;2023-09-18T11:19:05;4.72;;;4.32;;
12467;SDS011;57850;52.922;6.256;2023-09-18T11:21:35;5.53;;;4.65;;
12467;SDS011;57850;52.922;6.256;2023-09-18T11:24:03;5.03;;;4.45;;
12467;SDS011;57850;52.922;6.256;2023-09-18T11:26:31;5.45;;;4.70;;
12467;SDS011;57850;52.922;6.256;2023-09-18T11:28:59;5.25;;;4.47;;
12467;SDS011;57850;52.922;6.256;2023-09-18T11:31:43;8.25;;;5.10;;
12467;SDS011;57850;52.922;6.256;2023-09-18T11:34:12;4.20;;;3.80;;
12467;SDS011;57850;52.922;6.256;2023-09-18T11:36:45;5.10;;;4.60;;
12467;SDS011;57850;52.922;6.256;2023-09-18T11:39:12;8.35;;;4.35;;
12467;SDS011;57850;52.922;6.256;2023-09-18T11:41:39;4.82;;;4.43;;
12467;SDS011;57850;52.922;6.256;2023-09-18T11:47:07;5.75;;;4.50;;
12467;SDS011;57850;52.922;6.256;2023-09-18T11:49:37;6.13;;;4.60;;
12467;SDS011;57850;52.922;6.256;2023-09-18T11:52:06;6.13;;;4.32;;
12467;SDS011;57850;52.922;6.256;2023-09-18T11:54:33;9.98;;;5.07;;
12467;SDS011;57850;52.922;6.256;2023-09-18T11:57:02;5.80;;;4.55;;
12467;SDS011;57850;52.922;6.256;2023-09-18T11:59:35;4.70;;;4.30;;
12467;SDS011;57850;52.922;6.256;2023-09-18T12:02:03;6.43;;;4.47;;
12467;SDS011;57850;52.922;6.256;2023-09-18T12:04:34;7.47;;;4.38;;
12467;SDS011;57850;52.922;6.256;2023-09-18T12:07:01;4.28;;;3.88;;
12467;SDS011;57850;52.922;6.256;2023-09-18T12:09:29;5.65;;;4.55;;
12467;SDS011;57850;52.922;6.256;2023-09-18T12:11:57;6.38;;;4.35;;
12467;SDS011;57850;52.922;6.256;2023-09-18T12:14:29;6.13;;;4.28;;
12467;SDS011;57850;52.922;6.256;2023-09-18T12:16:56;6.28;;;4.72;;
12467;SDS011;57850;52.922;6.256;2023-09-18T12:19:23;4.20;;;3.72;;
12467;SDS011;57850;52.922;6.256;2023-09-18T12:21:52;4.25;;;3.60;;
12467;SDS011;57850;52.922;6.256;2023-09-18T12:24:20;4.00;;;3.60;;
12467;SDS011;57850;52.922;6.256;2023-09-18T12:26:48;8.50;;;3.65;;
12467;SDS011;57850;52.922;6.256;2023-09-18T12:29:14;4.57;;;4.03;;
12467;SDS011;57850;52.922;6.256;2023-09-18T12:31:41;4.75;;;4.20;;
12467;SDS011;57850;52.922;6.256;2023-09-18T12:34:13;5.97;;;4.13;;
12467;SDS011;57850;52.922;6.256;2023-09-18T12:36:41;4.22;;;3.80;;
12467;SDS011;57850;52.922;6.256;2023-09-18T12:39:10;4.93;;;4.40;;
12467;SDS011;57850;52.922;6.256;2023-09-18T12:41:37;4.53;;;3.83;;
12467;SDS011;57850;52.922;6.256;2023-09-18T12:44:05;5.18;;;4.38;;
12467;SDS011;57850;52.922;6.256;2023-09-18T12:46:32;4.50;;;4.10;;
12467;SDS011;57850;52.922;6.256;2023-09-18T12:49:14;5.40;;;4.30;;
12467;SDS011;57850;52.922;6.256;2023-09-18T12:51:42;4.90;;;4.28;;
12467;SDS011;57850;52.922;6.256;2023-09-18T12:54:10;4.78;;;4.30;;
12467;SDS011;57850;52.922;6.256;2023-09-18T12:56:41;5.50;;;3.88;;
12467;SDS011;57850;52.922;6.256;2023-09-18T12:59:08;6.18;;;4.53;;
12467;SDS011;57850;52.922;6.256;2023-09-18T13:01:38;5.18;;;4.57;;
12467;SDS011;57850;52.922;6.256;2023-09-18T13:04:05;6.00;;;4.70;;
12467;SDS011;57850;52.922;6.256;2023-09-18T13:06:31;7.30;;;4.95;;
12467;SDS011;57850;52.922;6.256;2023-09-18T13:11:52;5.03;;;4.57;;
12467;SDS011;57850;52.922;6.256;2023-09-18T13:14:19;6.35;;;4.88;;
12467;SDS011;57850;52.922;6.256;2023-09-18T13:16:46;5.97;;;4.85;;
12467;SDS011;57850;52.922;6.256;2023-09-18T13:19:13;4.72;;;4.20;;
12467;SDS011;57850;52.922;6.256;2023-09-18T13:21:45;4.70;;;3.75;;
12467;SDS011;57850;52.922;6.256;2023-09-18T13:24:25;6.45;;;4.35;;
12467;SDS011;57850;52.922;6.256;2023-09-18T13:26:52;4.30;;;3.90;;
12467;SDS011;57850;52.922;6.256;2023-09-18T13:29:19;4.70;;;4.05;;
12467;SDS011;57850;52.922;6.256;2023-09-18T13:31:46;7.38;;;4.40;;
12467;SDS011;57850;52.922;6.256;2023-09-18T13:34:13;5.32;;;4.50;;
12467;SDS011;57850;52.922;6.256;2023-09-18T13:36:42;4.85;;;4.28;;
12467;SDS011;57850;52.922;6.256;2023-09-18T13:39:09;5.22;;;4.45;;
12467;SDS011;57850;52.922;6.256;2023-09-18T13:41:37;6.30;;;4.22;;
12467;SDS011;57850;52.922;6.256;2023-09-18T13:44:04;5.32;;;4.30;;
12467;SDS011;57850;52.922;6.256;2023-09-18T13:46:31;4.60;;;4.20;;
12467;SDS011;57850;52.922;6.256;2023-09-18T13:49:01;5.25;;;3.88;;
12467;SDS011;57850;52.922;6.256;2023-09-18T13:51:29;6.45;;;3.88;;
12467;SDS011;57850;52.922;6.256;2023-09-18T13:53:56;4.40;;;4.00;;
12467;SDS011;57850;52.922;6.256;2023-09-18T13:56:23;3.97;;;3.67;;
12467;SDS011;57850;52.922;6.256;2023-09-18T13:58:54;6.38;;;3.80;;
12467;SDS011;57850;52.922;6.256;2023-09-18T14:01:21;5.07;;;4.00;;
12467;SDS011;57850;52.922;6.256;2023-09-18T14:03:48;4.75;;;4.25;;
12467;SDS011;57850;52.922;6.256;2023-09-18T14:06:15;7.20;;;4.40;;
12467;SDS011;57850;52.922;6.256;2023-09-18T14:08:42;5.70;;;4.60;;
12467;SDS011;57850;52.922;6.256;2023-09-18T14:11:09;7.05;;;4.82;;
12467;SDS011;57850;52.922;6.256;2023-09-18T14:13:35;7.10;;;4.63;;
12467;SDS011;57850;52.922;6.256;2023-09-18T14:16:03;5.55;;;4.75;;
12467;SDS011;57850;52.922;6.256;2023-09-18T14:18:31;6.32;;;4.53;;
12467;SDS011;57850;52.922;6.256;2023-09-18T14:20:57;6.32;;;4.03;;
12467;SDS011;57850;52.922;6.256;2023-09-18T14:23:24;8.77;;;4.88;;
12467;SDS011;57850;52.922;6.256;2023-09-18T14:25:51;8.93;;;5.45;;
12467;SDS011;57850;52.922;6.256;2023-09-18T14:28:19;5.93;;;4.28;;
12467;SDS011;57850;52.922;6.256;2023-09-18T14:30:46;6.55;;;4.30;;
12467;SDS011;57850;52.922;6.256;2023-09-18T14:33:14;7.45;;;4.22;;
12467;SDS011;57850;52.922;6.256;2023-09-18T14:35:40;4.68;;;3.97;;
12467;SDS011;57850;52.922;6.256;2023-09-18T14:38:07;3.75;;;3.42;;